Time;durP1;ratioP1;P1;durP2;ratioP2;P2;SDS_P1;SDS_P2;PMS_P1;PMS_P2;Temp;Humidity;BMP_temperature;BMP_pressure;BME280_temperature;BME280_humidity;BME280_pressure;Samples;Min_cycle;Max_cycle;Signal;HPM_P1;HPM_P2
2021/06/12 00:00:25;;;;;;;10.30;4.47;;;17.60;99.90;;;;;;5062067;28;20275;-75
2021/06/12 00:02:52;;;;;;;10.47;4.70;;;17.70;99.90;;;;;;5064185;28;20182;-74
2021/06/12 00:05:18;;;;;;;10.50;4.50;;;17.80;99.90;;;;;;5060429;28;20722;-74
2021/06/12 00:07:45;;;;;;;11.03;4.30;;;17.90;99.90;;;;;;5058930;28;20539;-75
2021/06/12 00:10:16;;;;;;;8.13;4.50;;;17.80;99.90;;;;;;5063651;28;20184;-74
2021/06/12 00:12:43;;;;;;;8.73;4.20;;;17.70;99.90;;;;;;5064940;28;20179;-75
2021/06/12 00:15:12;;;;;;;8.57;4.20;;;17.50;99.90;;;;;;5065640;28;20205;-74
2021/06/12 00:17:39;;;;;;;8.20;4.40;;;17.50;99.90;;;;;;5062816;28;20229;-75
2021/06/12 00:20:10;;;;;;;7.70;4.30;;;17.60;99.90;;;;;;5048666;28;20687;-74
2021/06/12 00:22:36;;;;;;;7.97;4.37;;;17.60;99.90;;;;;;5048094;28;20286;-74
2021/06/12 00:25:04;;;;;;;12.90;4.60;;;17.60;99.90;;;;;;5059971;28;20214;-75
2021/06/12 00:27:31;;;;;;;9.37;4.37;;;17.60;99.90;;;;;;5058584;28;20743;-74
2021/06/12 00:29:58;;;;;;;9.53;4.50;;;17.60;99.90;;;;;;5061661;28;20195;-74
2021/06/12 00:32:24;;;;;;;8.87;4.57;;;17.50;99.90;;;;;;5063030;28;20301;-74
2021/06/12 00:34:50;;;;;;;11.17;4.17;;;17.50;99.90;;;;;;5065444;28;20189;-74
2021/06/12 00:37:17;;;;;;;11.27;4.73;;;17.40;99.90;;;;;;5062839;28;20191;-75
2021/06/12 00:39:43;;;;;;;10.37;3.97;;;17.60;99.90;;;;;;5082077;28;20555;-75
2021/06/12 00:42:10;;;;;;;7.60;4.27;;;17.50;99.90;;;;;;5061037;28;20224;-75
2021/06/12 00:44:36;;;;;;;10.90;4.23;;;17.30;99.90;;;;;;5045659;28;20183;-73
2021/06/12 00:47:03;;;;;;;7.97;4.33;;;17.20;99.90;;;;;;5061645;28;20635;-72
2021/06/12 00:49:29;;;;;;;11.93;4.63;;;17.10;99.90;;;;;;5060946;28;20226;-72
2021/06/12 00:51:55;;;;;;;11.10;4.57;;;17.10;99.90;;;;;;5046630;28;20236;-74
2021/06/12 00:54:21;;;;;;;7.63;4.63;;;17.10;99.90;;;;;;5065022;28;20240;-75
2021/06/12 00:56:48;;;;;;;9.43;4.57;;;17.20;99.90;;;;;;5059601;28;20202;-76
2021/06/12 00:59:14;;;;;;;8.30;4.57;;;17.20;99.90;;;;;;5060032;28;20202;-71
2021/06/12 01:01:40;;;;;;;9.47;4.70;;;17.20;99.90;;;;;;5058168;28;20778;-74
2021/06/12 01:04:07;;;;;;;12.50;5.10;;;17.10;99.90;;;;;;5063238;28;20261;-75
2021/06/12 01:06:33;;;;;;;8.93;4.67;;;17.20;99.90;;;;;;5066038;28;20298;-75
2021/06/12 01:08:59;;;;;;;9.97;4.57;;;17.20;99.90;;;;;;5061634;28;20190;-74
2021/06/12 01:11:26;;;;;;;5.27;4.20;;;17.40;99.90;;;;;;5085464;28;20485;-72
2021/06/12 01:14:10;;;;;;;9.67;4.50;;;17.30;99.90;;;;;;5061685;28;20651;-72
2021/06/12 01:17:03;;;;;;;9.03;4.60;;;17.30;99.90;;;;;;5059065;28;20289;-72
2021/06/12 01:20:02;;;;;;;10.13;4.70;;;17.20;99.90;;;;;;5059088;28;20275;-73
2021/06/12 01:22:46;;;;;;;9.50;4.50;;;17.20;99.90;;;;;;5058738;28;20648;-72
2021/06/12 01:25:57;;;;;;;11.37;4.73;;;17.20;99.90;;;;;;5086986;28;20198;-71
2021/06/12 01:28:57;;;;;;;9.90;4.13;;;17.20;99.90;;;;;;5060755;28;20209;-73
2021/06/12 01:31:25;;;;;;;10.47;4.43;;;17.20;99.90;;;;;;5045902;28;20197;-73
2021/06/12 01:33:53;;;;;;;6.90;4.40;;;17.20;99.90;;;;;;5061345;28;20194;-72
2021/06/12 01:36:22;;;;;;;11.40;4.83;;;17.20;99.90;;;;;;5060545;28;20191;-73
2021/06/12 01:38:54;;;;;;;9.37;4.87;;;17.20;99.90;;;;;;5059923;28;20179;-73
2021/06/12 01:41:22;;;;;;;7.23;4.47;;;17.30;99.90;;;;;;5054543;28;20215;-74
2021/06/12 01:43:52;;;;;;;6.80;4.80;;;17.30;99.90;;;;;;5061415;28;20187;-72
2021/06/12 01:46:19;;;;;;;10.27;4.80;;;17.30;99.90;;;;;;5057447;28;20191;-74
2021/06/12 01:48:48;;;;;;;10.77;4.90;;;17.20;99.90;;;;;;5062073;28;20278;-72
2021/06/12 01:51:16;;;;;;;7.87;4.60;;;17.20;99.90;;;;;;5063996;28;20205;-72
2021/06/12 01:53:44;;;;;;;9.17;4.43;;;17.10;99.90;;;;;;5061313;28;20718;-74
2021/06/12 01:56:12;;;;;;;12.27;4.73;;;17.20;99.90;;;;;;5059901;28;20191;-72
2021/06/12 01:58:43;;;;;;;8.03;4.60;;;17.10;99.90;;;;;;5060356;28;20201;-73
2021/06/12 02:01:14;;;;;;;12.37;5.03;;;17.20;99.90;;;;;;5057008;28;20203;-72
2021/06/12 02:03:45;;;;;;;11.87;4.80;;;17.30;99.90;;;;;;5060932;28;20228;-74
2021/06/12 02:06:16;;;;;;;10.87;4.90;;;17.30;99.90;;;;;;5063217;28;20575;-72
2021/06/12 02:08:46;;;;;;;10.37;4.90;;;17.00;99.90;;;;;;5058047;28;20175;-72
2021/06/12 02:11:17;;;;;;;8.37;4.97;;;17.20;99.90;;;;;;5072427;28;20191;-71
2021/06/12 02:13:47;;;;;;;7.27;4.70;;;17.10;99.90;;;;;;5062826;28;20203;-75
2021/06/12 02:16:16;;;;;;;11.50;4.90;;;17.30;99.90;;;;;;5043154;28;20547;-75
2021/06/12 02:18:46;;;;;;;6.83;4.83;;;17.30;99.90;;;;;;5060662;28;20198;-71
2021/06/12 02:21:16;;;;;;;7.10;4.73;;;17.00;99.90;;;;;;5060393;28;20202;-71
2021/06/12 02:23:43;;;;;;;11.97;4.60;;;16.90;99.90;;;;;;5058906;28;20253;-71
2021/06/12 02:26:13;;;;;;;13.67;4.90;;;16.90;99.90;;;;;;5060240;28;20198;-75
2021/06/12 02:28:41;;;;;;;16.33;5.13;;;17.00;99.90;;;;;;5047264;28;20187;-75
2021/06/12 02:31:16;;;;;;;6.10;4.67;;;17.00;99.90;;;;;;5059558;28;20192;-72
2021/06/12 02:33:46;;;;;;;10.00;5.10;;;17.00;99.90;;;;;;5060199;28;20222;-71
2021/06/12 02:36:14;;;;;;;16.30;5.43;;;17.10;99.90;;;;;;5061753;28;20187;-73
2021/06/12 02:38:41;;;;;;;7.77;4.87;;;16.90;99.90;;;;;;5060980;28;20647;-72
2021/06/12 02:41:08;;;;;;;10.83;5.13;;;16.90;99.90;;;;;;5055896;28;20354;-69
2021/06/12 02:43:35;;;;;;;11.57;5.57;;;16.90;99.90;;;;;;5056408;28;20188;-72
2021/06/12 02:46:03;;;;;;;9.00;5.40;;;16.90;99.90;;;;;;5057993;28;20192;-72
2021/06/12 02:48:33;;;;;;;10.43;5.83;;;17.00;99.90;;;;;;5064533;28;20182;-73
2021/06/12 02:51:01;;;;;;;12.63;5.80;;;17.10;99.90;;;;;;5057834;28;20232;-72
2021/06/12 02:53:35;;;;;;;10.40;5.57;;;17.20;99.90;;;;;;5055108;28;20656;-71
2021/06/12 02:56:04;;;;;;;9.50;5.83;;;17.10;99.90;;;;;;5058153;28;20190;-73
2021/06/12 02:58:32;;;;;;;8.03;5.70;;;17.20;99.90;;;;;;5062258;28;20198;-72
2021/06/12 03:01:00;;;;;;;7.50;5.27;;;17.30;99.90;;;;;;5052343;28;20513;-75
2021/06/12 03:03:29;;;;;;;8.50;4.90;;;17.40;99.90;;;;;;5060522;28;20611;-74
2021/06/12 03:05:58;;;;;;;9.60;4.97;;;17.40;99.90;;;;;;5060259;28;20210;-72
2021/06/12 03:08:36;;;;;;;12.53;5.23;;;17.40;99.90;;;;;;5058934;28;20194;-73
2021/06/12 03:11:06;;;;;;;9.30;5.00;;;17.30;99.90;;;;;;5062971;28;20236;-74
2021/06/12 03:13:34;;;;;;;9.37;5.20;;;17.20;99.90;;;;;;5058071;28;20193;-70
2021/06/12 03:16:02;;;;;;;11.37;5.57;;;17.20;99.90;;;;;;5048535;28;20240;-72
2021/06/12 03:18:29;;;;;;;9.47;5.23;;;17.20;99.90;;;;;;5057285;28;20201;-71
2021/06/12 03:21:04;;;;;;;10.87;5.17;;;17.30;99.90;;;;;;5057794;28;20211;-73
2021/06/12 03:23:32;;;;;;;9.77;4.90;;;17.40;99.90;;;;;;5055401;28;20664;-73
2021/06/12 03:26:00;;;;;;;10.40;5.00;;;17.40;99.90;;;;;;5057900;28;20209;-72
2021/06/12 03:28:29;;;;;;;8.33;5.30;;;17.40;99.90;;;;;;5061265;28;20199;-76
2021/06/12 03:30:56;;;;;;;12.37;5.00;;;17.50;99.90;;;;;;5055386;28;20194;-74
2021/06/12 03:33:23;;;;;;;8.67;4.90;;;17.50;99.90;;;;;;5062784;28;20191;-74
2021/06/12 03:35:52;;;;;;;8.93;5.30;;;17.60;99.90;;;;;;5068026;28;20640;-73
2021/06/12 03:38:21;;;;;;;7.87;4.97;;;17.60;99.90;;;;;;5065376;28;20488;-73
2021/06/12 03:40:49;;;;;;;12.17;5.33;;;17.60;99.90;;;;;;5044267;28;20242;-74
2021/06/12 03:43:16;;;;;;;11.63;5.03;;;17.50;99.90;;;;;;5066234;28;20273;-73
2021/06/12 03:45:43;;;;;;;14.27;5.07;;;17.50;99.90;;;;;;5049460;28;20183;-74
2021/06/12 03:48:13;;;;;;;8.87;5.60;;;17.60;99.90;;;;;;5045915;28;20270;-73
2021/06/12 03:50:42;;;;;;;10.73;5.40;;;17.60;99.90;;;;;;5062660;28;20175;-74
2021/06/12 03:53:08;;;;;;;12.50;5.60;;;17.60;99.90;;;;;;5063306;28;20186;-73
2021/06/12 03:55:36;;;;;;;8.10;5.57;;;17.60;99.90;;;;;;5062121;28;20195;-76
2021/06/12 03:58:03;;;;;;;7.57;5.50;;;17.60;99.90;;;;;;5060804;28;20179;-73
2021/06/12 04:00:31;;;;;;;14.60;5.40;;;17.60;99.90;;;;;;5065331;28;20204;-72
2021/06/12 04:02:57;;;;;;;11.77;5.53;;;17.60;99.90;;;;;;5075072;28;20866;-75
2021/06/12 04:05:23;;;;;;;5.70;5.10;;;17.60;99.90;;;;;;5065424;28;20199;-75
2021/06/12 04:07:50;;;;;;;7.20;5.40;;;17.70;99.90;;;;;;5060680;28;20182;-75
2021/06/12 04:10:16;;;;;;;11.97;5.67;;;17.70;99.90;;;;;;5048211;28;20210;-73
2021/06/12 04:12:42;;;;;;;9.53;5.80;;;17.70;99.90;;;;;;5041900;28;20532;-73
2021/06/12 04:15:10;;;;;;;14.70;5.97;;;17.80;99.90;;;;;;5063758;28;20201;-73
2021/06/12 04:17:39;;;;;;;9.93;6.20;;;17.90;99.90;;;;;;5070559;28;20635;-75
2021/06/12 04:20:06;;;;;;;11.17;6.37;;;18.10;99.90;;;;;;5058369;28;20187;-74
2021/06/12 04:22:32;;;;;;;8.73;6.17;;;18.20;99.90;;;;;;5058682;28;20214;-73
2021/06/12 04:24:58;;;;;;;12.23;5.90;;;18.40;99.90;;;;;;5063997;28;20543;-74
2021/06/12 04:27:25;;;;;;;9.90;6.20;;;18.40;99.90;;;;;;5046846;28;20707;-74
2021/06/12 04:29:51;;;;;;;11.27;6.03;;;18.50;99.90;;;;;;5059725;28;20253;-73
2021/06/12 04:32:17;;;;;;;10.87;5.83;;;18.60;99.90;;;;;;5064798;28;20175;-76
2021/06/12 04:34:43;;;;;;;11.97;6.33;;;18.80;99.90;;;;;;5060700;28;20190;-73
2021/06/12 04:37:10;;;;;;;14.13;6.27;;;18.80;99.90;;;;;;5058523;28;20190;-74
2021/06/12 04:39:36;;;;;;;11.33;6.10;;;18.90;99.90;;;;;;5062272;28;20513;-74
2021/06/12 04:42:03;;;;;;;16.57;6.00;;;19.00;99.90;;;;;;5059065;28;20294;-73
2021/06/12 04:44:29;;;;;;;10.13;5.33;;;19.10;99.90;;;;;;5061620;28;20301;-73
2021/06/12 04:46:55;;;;;;;13.07;6.13;;;19.10;99.90;;;;;;5062204;28;20260;-74
2021/06/12 04:49:21;;;;;;;12.87;5.73;;;19.20;99.90;;;;;;5064243;28;20222;-74
2021/06/12 04:51:47;;;;;;;11.87;6.83;;;19.30;99.90;;;;;;5077504;28;20308;-74
2021/06/12 04:54:14;;;;;;;10.73;5.47;;;19.40;99.90;;;;;;5053336;28;20713;-73
2021/06/12 04:56:42;;;;;;;7.90;5.37;;;19.50;99.90;;;;;;5059958;28;20670;-72
2021/06/12 04:59:08;;;;;;;10.10;5.83;;;19.40;99.90;;;;;;5066455;28;20252;-73
2021/06/12 05:01:34;;;;;;;11.70;6.60;;;19.50;99.90;;;;;;5062595;28;20310;-72
2021/06/12 05:04:01;;;;;;;12.57;6.33;;;19.60;99.90;;;;;;5062869;28;20175;-74
2021/06/12 05:06:27;;;;;;;12.70;5.93;;;19.80;99.90;;;;;;5058855;28;20236;-74
2021/06/12 05:08:53;;;;;;;11.87;5.80;;;19.80;99.90;;;;;;5054694;28;20206;-73
2021/06/12 05:11:19;;;;;;;13.57;5.63;;;19.70;99.90;;;;;;5061814;28;20182;-74
2021/06/12 05:13:46;;;;;;;9.83;5.27;;;19.90;99.90;;;;;;5059082;28;20652;-75
2021/06/12 05:16:12;;;;;;;10.00;5.50;;;20.00;99.90;;;;;;5059004;28;20195;-75
2021/06/12 05:18:44;;;;;;;9.80;5.10;;;20.00;99.90;;;;;;5049307;28;20943;-76
2021/06/12 05:21:12;;;;;;;8.03;4.57;;;20.10;99.90;;;;;;5062416;28;20754;-73
2021/06/12 05:23:39;;;;;;;8.33;4.90;;;20.10;99.90;;;;;;5077764;28;20550;-74
2021/06/12 05:26:07;;;;;;;10.00;4.57;;;20.20;99.90;;;;;;5064372;28;20309;-74
2021/06/12 05:28:35;;;;;;;10.37;4.70;;;20.20;99.90;;;;;;5041658;28;21122;-74
2021/06/12 05:31:01;;;;;;;9.27;4.40;;;20.30;99.90;;;;;;5060777;28;20238;-73
2021/06/12 05:33:29;;;;;;;7.73;4.53;;;20.30;99.90;;;;;;5062843;28;20215;-74
2021/06/12 05:35:58;;;;;;;9.53;4.47;;;20.40;99.90;;;;;;5060087;28;20252;-74
2021/06/12 05:38:25;;;;;;;8.23;4.03;;;20.40;99.90;;;;;;5044859;28;20195;-71
2021/06/12 05:40:54;;;;;;;5.53;3.90;;;20.40;99.90;;;;;;5057508;28;20648;-73
2021/06/12 05:43:22;;;;;;;9.97;4.10;;;20.50;99.90;;;;;;5061793;28;21007;-73
2021/06/12 05:45:48;;;;;;;9.70;4.60;;;20.60;99.90;;;;;;5061858;28;20639;-73
2021/06/12 05:48:15;;;;;;;8.50;4.40;;;20.60;99.90;;;;;;5044201;28;20191;-71
2021/06/12 05:50:41;;;;;;;5.23;4.20;;;20.60;99.90;;;;;;5055490;28;20284;-75
2021/06/12 05:53:08;;;;;;;9.10;4.63;;;20.70;99.90;;;;;;5060109;28;20187;-75
2021/06/12 05:55:35;;;;;;;11.10;4.50;;;20.70;99.90;;;;;;5062435;28;20256;-71
2021/06/12 05:58:01;;;;;;;9.80;4.80;;;20.80;99.90;;;;;;5062311;28;20187;-71
2021/06/12 06:00:28;;;;;;;10.97;4.77;;;20.90;99.90;;;;;;5062621;28;20229;-72
2021/06/12 06:02:55;;;;;;;12.30;4.17;;;21.00;99.90;;;;;;5057180;28;20194;-70
2021/06/12 06:05:21;;;;;;;9.23;4.40;;;21.00;99.90;;;;;;5060608;28;20208;-73
2021/06/12 06:07:47;;;;;;;7.73;4.20;;;21.10;99.90;;;;;;5062134;28;20187;-73
2021/06/12 06:10:14;;;;;;;10.97;4.37;;;21.20;99.90;;;;;;5058207;28;20184;-74
2021/06/12 06:12:40;;;;;;;9.07;4.50;;;21.20;99.90;;;;;;5055730;28;20232;-71
2021/06/12 06:15:10;;;;;;;10.83;4.13;;;21.20;99.90;;;;;;5063444;28;20188;-72
2021/06/12 06:17:41;;;;;;;13.33;4.17;;;21.30;99.90;;;;;;5061391;28;20344;-70
2021/06/12 06:20:12;;;;;;;6.00;3.90;;;21.40;99.90;;;;;;5063372;28;20190;-70
2021/06/12 06:22:39;;;;;;;9.87;4.30;;;21.60;99.90;;;;;;5063001;28;20222;-72
2021/06/12 06:25:07;;;;;;;10.53;4.20;;;21.70;99.90;;;;;;5061126;28;20195;-70
2021/06/12 06:27:34;;;;;;;6.67;4.27;;;21.90;99.90;;;;;;5042146;28;21031;-70
2021/06/12 06:30:00;;;;;;;8.47;3.90;;;22.00;99.90;;;;;;5059159;28;20182;-70
2021/06/12 06:32:27;;;;;;;16.50;4.40;;;21.90;99.90;;;;;;5041291;28;20271;-70
2021/06/12 06:34:53;;;;;;;8.20;3.70;;;21.90;99.90;;;;;;5055064;28;20302;-71
2021/06/12 06:37:20;;;;;;;5.93;3.60;;;21.90;99.90;;;;;;5044329;28;20183;-72
2021/06/12 06:39:46;;;;;;;11.13;3.87;;;22.00;99.90;;;;;;5058992;28;20210;-72
2021/06/12 06:42:12;;;;;;;8.50;3.97;;;22.20;99.90;;;;;;5056086;28;20596;-72
2021/06/12 06:44:39;;;;;;;10.37;3.83;;;22.30;99.90;;;;;;5062073;28;20199;-71
2021/06/12 06:47:06;;;;;;;10.33;3.80;;;22.30;99.90;;;;;;5050593;28;20655;-71
2021/06/12 06:49:37;;;;;;;8.23;4.20;;;22.30;99.90;;;;;;5057253;28;20192;-73
2021/06/12 06:52:04;;;;;;;7.73;4.20;;;22.40;99.90;;;;;;5056112;28;20190;-72
2021/06/12 06:54:32;;;;;;;6.97;4.27;;;22.50;99.90;;;;;;5039151;28;20183;-73
2021/06/12 06:56:58;;;;;;;14.87;4.30;;;22.60;99.90;;;;;;5056428;28;20202;-71
2021/06/12 06:59:25;;;;;;;10.30;3.83;;;22.70;99.90;;;;;;5071726;28;20266;-72
2021/06/12 07:01:51;;;;;;;8.27;3.67;;;22.70;99.90;;;;;;5073273;28;20207;-70
2021/06/12 07:04:17;;;;;;;7.73;3.90;;;22.80;99.90;;;;;;5059803;28;20308;-71
2021/06/12 07:06:44;;;;;;;5.83;3.93;;;22.80;99.90;;;;;;5060802;28;20689;-73
2021/06/12 07:09:10;;;;;;;4.93;3.03;;;23.00;99.90;;;;;;5061178;28;20186;-70
2021/06/12 07:11:36;;;;;;;7.63;3.47;;;23.10;99.90;;;;;;5058063;28;20188;-74
2021/06/12 07:14:03;;;;;;;6.43;3.77;;;23.30;99.90;;;;;;5057267;28;20229;-71
2021/06/12 07:16:29;;;;;;;7.17;3.43;;;23.20;99.90;;;;;;5057042;28;20684;-72
2021/06/12 07:18:57;;;;;;;9.10;3.80;;;23.20;99.90;;;;;;5060604;28;20178;-71
2021/06/12 07:21:23;;;;;;;6.93;3.13;;;23.30;99.90;;;;;;5054791;28;20200;-73
2021/06/12 07:23:50;;;;;;;5.87;3.43;;;23.50;99.90;;;;;;5062839;28;20545;-70
2021/06/12 07:26:16;;;;;;;10.67;3.70;;;23.60;99.90;;;;;;5056802;28;20744;-70
2021/06/12 07:28:43;;;;;;;5.30;3.40;;;23.60;99.90;;;;;;5057849;28;20685;-72
2021/06/12 07:31:09;;;;;;;8.15;3.20;;;23.60;99.90;;;;;;5056304;28;20206;-75
2021/06/12 07:33:36;;;;;;;8.45;3.20;;;23.90;99.90;;;;;;5059268;28;20202;-72
2021/06/12 07:36:02;;;;;;;7.90;3.33;;;24.00;99.90;;;;;;5057363;28;20186;-74
2021/06/12 07:38:29;;;;;;;7.53;3.50;;;23.90;99.90;;;;;;5061770;28;20201;-69
2021/06/12 07:40:55;;;;;;;5.13;3.07;;;23.90;99.90;;;;;;5043675;28;20222;-71
2021/06/12 07:43:22;;;;;;;5.40;2.97;;;24.00;99.90;;;;;;5058323;28;20183;-72
2021/06/12 07:45:50;;;;;;;11.88;3.88;;;24.30;99.90;;;;;;5061733;28;20183;-70
2021/06/12 07:48:17;;;;;;;7.05;3.53;;;24.30;99.90;;;;;;5060163;28;20234;-73
2021/06/12 07:50:44;;;;;;;9.05;3.30;;;24.30;99.90;;;;;;5060554;28;20846;-72
2021/06/12 07:53:10;;;;;;;6.47;3.40;;;24.40;99.90;;;;;;5058036;28;20277;-72
2021/06/12 07:55:37;;;;;;;6.90;3.60;;;24.40;99.90;;;;;;5055463;28;20194;-72
2021/06/12 07:58:05;;;;;;;12.15;3.30;;;24.30;99.90;;;;;;5056049;28;20272;-71
2021/06/12 08:00:31;;;;;;;8.57;3.30;;;24.50;99.90;;;;;;5059695;28;20232;-71
2021/06/12 08:02:58;;;;;;;7.85;3.47;;;24.70;99.90;;;;;;5057445;28;20183;-70
2021/06/12 08:05:26;;;;;;;6.38;3.42;;;24.80;99.90;;;;;;5056053;28;20207;-69
2021/06/12 08:07:52;;;;;;;8.07;2.97;;;24.90;99.90;;;;;;5061142;28;20839;-71
2021/06/12 08:10:19;;;;;;;11.43;3.83;;;25.10;99.90;;;;;;5055418;28;20222;-71
2021/06/12 08:12:46;;;;;;;7.53;3.38;;;25.10;99.90;;;;;;5056407;28;20188;-72
2021/06/12 08:15:13;;;;;;;6.47;3.50;;;25.30;99.90;;;;;;5053889;28;20189;-69
2021/06/12 08:17:40;;;;;;;9.40;3.35;;;25.30;99.90;;;;;;5054886;28;20245;-73
2021/06/12 08:20:07;;;;;;;5.78;3.40;;;25.50;99.90;;;;;;5063290;28;20191;-70
2021/06/12 08:22:34;;;;;;;9.13;3.50;;;25.50;99.90;;;;;;5058048;28;20777;-71
2021/06/12 08:25:01;;;;;;;6.38;3.72;;;25.50;99.90;;;;;;5046840;28;20179;-70
2021/06/12 08:27:27;;;;;;;6.85;3.33;;;25.60;99.90;;;;;;5062173;28;20207;-72
2021/06/12 08:29:54;;;;;;;5.95;3.20;;;25.90;99.90;;;;;;5061190;28;20183;-72
2021/06/12 08:32:20;;;;;;;7.05;3.38;;;26.10;99.90;;;;;;5061956;28;20395;-72
2021/06/12 08:34:49;;;;;;;6.95;3.47;;;25.90;99.90;;;;;;5058876;28;20186;-72
2021/06/12 08:37:15;;;;;;;7.82;3.33;;;25.90;99.90;;;;;;5064599;28;20194;-72
2021/06/12 08:39:42;;;;;;;11.88;3.05;;;26.20;99.90;;;;;;5059249;28;20190;-71
2021/06/12 08:42:09;;;;;;;5.13;3.00;;;26.30;99.90;;;;;;5056499;28;20219;-71
2021/06/12 08:44:36;;;;;;;8.15;3.60;;;26.40;99.90;;;;;;5060455;28;20236;-71
2021/06/12 08:47:03;;;;;;;11.30;3.42;;;26.50;99.90;;;;;;5061298;28;20188;-72
2021/06/12 08:49:29;;;;;;;5.28;3.20;;;26.40;99.90;;;;;;5062821;28;20198;-73
2021/06/12 08:51:56;;;;;;;7.47;3.45;;;26.40;99.90;;;;;;5061439;28;20209;-75
2021/06/12 08:54:26;;;;;;;9.60;3.42;;;26.40;99.90;;;;;;5064048;28;20202;-74
2021/06/12 08:56:53;;;;;;;7.03;3.40;;;26.60;99.90;;;;;;5054681;28;20869;-71
2021/06/12 08:59:20;;;;;;;9.98;3.85;;;26.60;99.90;;;;;;5042763;28;20221;-72
2021/06/12 09:01:47;;;;;;;10.80;3.83;;;26.20;99.90;;;;;;5072698;28;20218;-72
2021/06/12 09:04:37;;;;;;;6.28;3.03;;;26.10;99.90;;;;;;5058233;28;20539;-71
2021/06/12 09:07:23;;;;;;;6.15;3.50;;;26.20;99.90;;;;;;5061679;28;20183;-72
2021/06/12 09:09:56;;;;;;;7.85;3.58;;;26.20;99.90;;;;;;5058860;28;20218;-72
2021/06/12 09:12:47;;;;;;;7.78;3.55;;;26.30;99.90;;;;;;5057867;28;20659;-72
2021/06/12 09:15:18;;;;;;;7.30;3.38;;;26.10;99.90;;;;;;5059429;28;20201;-72
2021/06/12 09:17:50;;;;;;;3.97;3.00;;;26.40;99.90;;;;;;5055009;28;20219;-72
2021/06/12 09:20:19;;;;;;;7.20;3.05;;;26.60;99.90;;;;;;5060359;28;20214;-71
2021/06/12 09:22:46;;;;;;;6.40;3.25;;;26.80;99.90;;;;;;5058664;28;20187;-72
2021/06/12 09:25:41;;;;;;;9.00;3.53;;;26.80;99.90;;;;;;5058799;28;20469;-72
2021/06/12 09:28:08;;;;;;;4.40;2.95;;;27.20;99.90;;;;;;5057705;28;20175;-73
2021/06/12 09:30:34;;;;;;;7.80;3.22;;;27.20;99.90;;;;;;5043441;28;20213;-72
2021/06/12 09:33:01;;;;;;;5.68;2.97;;;27.10;99.90;;;;;;5041972;28;20186;-74
2021/06/12 09:35:34;;;;;;;13.38;3.67;;;27.20;99.90;;;;;;5057623;28;20250;-73
2021/06/12 09:38:21;;;;;;;9.13;3.05;;;27.30;99.90;;;;;;5057418;28;20719;-71
2021/06/12 09:40:48;;;;;;;5.30;3.25;;;27.50;99.90;;;;;;5056945;28;20210;-73
2021/06/12 09:43:29;;;;;;;10.48;3.80;;;27.60;99.90;;;;;;5060230;28;20193;-70
2021/06/12 09:45:55;;;;;;;8.68;3.30;;;27.10;99.90;;;;;;5055799;28;20321;-74
2021/06/12 09:48:23;;;;;;;9.55;3.42;;;27.20;99.90;;;;;;5057042;28;20175;-72
2021/06/12 09:51:10;;;;;;;6.43;3.20;;;27.40;99.90;;;;;;5058301;28;20191;-74
2021/06/12 09:53:55;;;;;;;6.88;2.78;;;27.60;99.90;;;;;;5057091;28;20179;-74
2021/06/12 09:56:24;;;;;;;5.57;3.08;;;27.30;99.90;;;;;;5038767;28;20203;-74
2021/06/12 09:58:57;;;;;;;8.27;2.95;;;27.00;99.90;;;;;;5055226;28;20190;-71
2021/06/12 10:01:28;;;;;;;7.50;3.45;;;27.30;99.90;;;;;;5063280;28;20202;-72
2021/06/12 10:04:13;;;;;;;7.10;2.88;;;27.30;99.90;;;;;;5070026;28;20192;-71
2021/06/12 10:06:40;;;;;;;7.72;3.72;;;27.30;99.90;;;;;;5051863;28;20273;-73
2021/06/12 10:09:08;;;;;;;7.50;3.60;;;27.50;99.90;;;;;;5060515;28;20241;-72
2021/06/12 10:11:36;;;;;;;10.10;3.40;;;27.60;99.90;;;;;;5037085;28;20194;-73
2021/06/12 10:14:06;;;;;;;8.45;3.17;;;27.60;99.90;;;;;;5055337;28;20187;-70
2021/06/12 10:16:41;;;;;;;7.40;3.22;;;27.30;99.90;;;;;;5052568;28;20726;-73
2021/06/12 10:19:08;;;;;;;5.53;3.20;;;27.30;99.90;;;;;;5055554;28;21698;-71
2021/06/12 10:21:35;;;;;;;7.80;2.97;;;27.60;99.90;;;;;;5053738;28;20212;-71
2021/06/12 10:24:06;;;;;;;8.73;3.88;;;27.40;99.90;;;;;;5057886;28;20742;-73
2021/06/12 10:26:34;;;;;;;7.95;3.30;;;27.30;99.90;;;;;;5056832;28;20206;-73
2021/06/12 10:29:02;;;;;;;9.23;3.20;;;27.30;99.90;;;;;;5056402;28;20200;-72
2021/06/12 10:31:35;;;;;;;11.90;3.40;;;27.60;99.90;;;;;;5042709;28;20187;-73
2021/06/12 10:34:02;;;;;;;7.43;3.65;;;27.70;99.90;;;;;;5054268;28;20559;-72
2021/06/12 10:36:32;;;;;;;8.52;4.05;;;27.60;99.90;;;;;;5049838;28;20203;-72
2021/06/12 10:39:01;;;;;;;6.88;3.60;;;27.60;99.90;;;;;;5050941;28;20284;-75
2021/06/12 10:41:31;;;;;;;10.30;3.42;;;27.40;99.90;;;;;;5040108;28;20222;-72
2021/06/12 10:44:03;;;;;;;6.90;3.40;;;27.40;99.90;;;;;;5054970;28;20294;-72
2021/06/12 10:46:44;;;;;;;6.20;3.40;;;27.50;99.90;;;;;;5050808;28;20233;-72
2021/06/12 10:49:10;;;;;;;6.65;3.25;;;27.50;99.90;;;;;;5053345;28;20317;-74
2021/06/12 10:51:36;;;;;;;5.95;3.10;;;27.40;99.90;;;;;;5054597;28;20348;-74
2021/06/12 10:54:22;;;;;;;6.20;3.55;;;27.30;99.90;;;;;;5059738;28;20190;-73
2021/06/12 10:56:57;;;;;;;6.43;3.67;;;27.20;99.90;;;;;;5054238;28;20183;-74
2021/06/12 10:59:40;;;;;;;12.75;3.90;;;27.40;99.90;;;;;;5053750;28;20213;-73
2021/06/12 11:02:36;;;;;;;7.90;4.00;;;27.40;99.90;;;;;;5035700;28;20317;-74
2021/06/12 11:05:05;;;;;;;6.15;3.25;;;27.20;99.90;;;;;;5056099;28;20213;-74
2021/06/12 11:07:41;;;;;;;7.10;3.20;;;27.40;99.90;;;;;;5056649;28;20207;-74
2021/06/12 11:10:11;;;;;;;6.72;4.03;;;27.10;99.90;;;;;;5041856;28;20190;-73
2021/06/12 11:12:51;;;;;;;8.55;3.47;;;27.10;99.90;;;;;;5051971;28;20206;-72
2021/06/12 11:15:27;;;;;;;5.90;3.60;;;27.20;99.90;;;;;;5057252;28;20220;-73
2021/06/12 11:18:23;;;;;;;9.23;3.22;;;27.30;99.90;;;;;;5053151;28;20512;-71
2021/06/12 11:21:07;;;;;;;6.72;3.80;;;27.30;99.90;;;;;;5049648;28;20223;-72
2021/06/12 11:23:55;;;;;;;7.35;3.75;;;27.00;99.90;;;;;;5036325;28;20217;-73
2021/06/12 11:26:23;;;;;;;3.92;3.15;;;27.20;99.90;;;;;;5047680;28;20222;-72
2021/06/12 11:29:10;;;;;;;6.00;3.33;;;27.20;99.90;;;;;;5054919;28;20758;-73
2021/06/12 11:31:38;;;;;;;5.28;3.20;;;27.30;99.90;;;;;;5053212;28;20256;-72
2021/06/12 11:34:25;;;;;;;6.75;3.58;;;27.30;99.90;;;;;;5050266;28;20225;-75
2021/06/12 11:37:17;;;;;;;7.13;3.30;;;27.30;99.90;;;;;;5048040;28;20218;-73
2021/06/12 11:39:54;;;;;;;7.13;3.88;;;27.40;99.90;;;;;;5048930;28;20265;-73
2021/06/12 11:42:21;;;;;;;7.50;3.42;;;27.60;99.90;;;;;;5052861;28;20244;-74
2021/06/12 11:44:47;;;;;;;9.15;3.30;;;27.40;99.90;;;;;;5050639;28;20210;-72
2021/06/12 11:47:26;;;;;;;9.32;3.80;;;27.30;99.90;;;;;;5071982;28;20223;-74
2021/06/12 11:49:52;;;;;;;9.45;3.80;;;27.20;99.90;;;;;;5042007;28;20206;-71
2021/06/12 11:52:20;;;;;;;5.65;3.90;;;27.20;99.90;;;;;;5056006;28;20199;-71
2021/06/12 11:54:47;;;;;;;8.15;3.95;;;27.30;99.90;;;;;;5074355;28;20199;-73
2021/06/12 11:57:13;;;;;;;7.07;3.30;;;27.40;99.90;;;;;;5044475;28;20202;-71
2021/06/12 11:59:40;;;;;;;7.45;3.40;;;27.30;99.90;;;;;;5075167;28;20211;-73
2021/06/12 12:02:07;;;;;;;6.38;3.60;;;27.30;99.90;;;;;;5058002;28;20325;-72
2021/06/12 12:04:51;;;;;;;9.52;3.78;;;27.30;99.90;;;;;;5056984;28;20265;-73
2021/06/12 12:07:18;;;;;;;9.98;3.60;;;27.20;99.90;;;;;;5059379;28;20199;-75
2021/06/12 12:09:52;;;;;;;10.25;3.83;;;27.20;99.90;;;;;;5056942;28;20206;-74
2021/06/12 12:12:22;;;;;;;7.75;3.65;;;26.90;99.90;;;;;;5055436;28;20210;-75
2021/06/12 12:14:54;;;;;;;7.20;3.63;;;27.10;99.90;;;;;;5056167;28;20614;-72
2021/06/12 12:17:30;;;;;;;11.73;3.72;;;27.00;99.90;;;;;;5060820;28;20251;-73
2021/06/12 12:20:10;;;;;;;7.82;3.60;;;27.00;99.90;;;;;;5064484;28;20202;-75
2021/06/12 12:22:38;;;;;;;9.52;3.70;;;27.00;99.90;;;;;;5057341;28;20225;-74
2021/06/12 12:25:09;;;;;;;8.82;3.60;;;27.10;99.90;;;;;;5056615;28;20210;-74
2021/06/12 12:27:36;;;;;;;6.72;3.45;;;27.10;99.90;;;;;;5052759;28;20214;-74
2021/06/12 12:30:06;;;;;;;6.72;3.50;;;26.90;99.90;;;;;;5060051;28;20721;-74
2021/06/12 12:32:33;;;;;;;6.35;3.20;;;27.20;99.90;;;;;;5055210;28;20207;-75
2021/06/12 12:35:15;;;;;;;5.80;3.50;;;27.40;99.90;;;;;;5061680;28;20206;-75
2021/06/12 12:37:42;;;;;;;7.68;3.63;;;27.40;99.90;;;;;;5054536;28;20215;-73
2021/06/12 12:40:23;;;;;;;6.32;3.17;;;27.20;99.90;;;;;;5055078;28;20504;-73
2021/06/12 12:43:04;;;;;;;7.47;3.03;;;27.30;99.90;;;;;;5055516;28;20207;-73
2021/06/12 12:45:33;;;;;;;6.13;3.30;;;27.30;99.90;;;;;;5040919;28;20238;-72
2021/06/12 12:48:00;;;;;;;8.80;3.05;;;27.00;99.90;;;;;;5064121;28;21230;-73
2021/06/12 12:50:27;;;;;;;5.20;3.15;;;27.10;99.90;;;;;;5061379;28;20202;-73
2021/06/12 12:53:16;;;;;;;8.20;3.50;;;27.00;99.90;;;;;;5062216;28;20205;-74
2021/06/12 12:55:42;;;;;;;9.27;3.25;;;27.20;99.90;;;;;;5046258;28;20202;-73